createdAt,value
2024-01-25T00:00:55.546Z,11.80
2024-01-25T00:03:22.516Z,11.80
2024-01-25T00:05:49.577Z,11.80
2024-01-25T00:08:17.683Z,11.70
2024-01-25T00:10:44.594Z,11.70
2024-01-25T00:13:11.709Z,11.70
2024-01-25T00:21:11.339Z,11.60
2024-01-25T00:23:38.345Z,11.60
2024-01-25T00:26:05.372Z,11.50
2024-01-25T00:28:32.377Z,11.50
2024-01-25T00:30:59.428Z,11.40
2024-01-25T00:33:26.514Z,11.50
2024-01-25T00:35:53.755Z,11.40
2024-01-25T00:38:20.934Z,11.40
2024-01-25T00:40:48.158Z,11.40
2024-01-25T00:43:15.568Z,11.40
2024-01-25T00:45:42.985Z,11.40
2024-01-25T00:48:10.832Z,11.30
2024-01-25T00:50:38.865Z,11.30
2024-01-25T00:53:06.177Z,11.30
2024-01-25T00:55:33.618Z,11.30
2024-01-25T00:58:01.117Z,11.20
2024-01-25T01:00:28.620Z,11.20
2024-01-25T01:02:58.964Z,11.20
2024-01-25T01:05:26.602Z,11.20
2024-01-25T01:07:53.999Z,11.20
2024-01-25T01:10:21.053Z,11.20
2024-01-25T01:12:48.515Z,11.20
2024-01-25T01:15:15.499Z,11.10
2024-01-25T01:17:42.522Z,11.10
2024-01-25T01:20:10.258Z,11.10
2024-01-25T01:22:37.533Z,11.10
2024-01-25T01:25:06.176Z,11.10
2024-01-25T01:27:33.461Z,11.00
2024-01-25T01:30:00.580Z,11.00
2024-01-25T01:32:27.791Z,11.00
2024-01-25T01:34:55.035Z,11.00
2024-01-25T01:37:22.317Z,11.00
2024-01-25T01:39:49.410Z,10.90
2024-01-25T01:42:16.397Z,10.90
2024-01-25T01:44:43.388Z,10.90
2024-01-25T01:47:10.451Z,10.80
2024-01-25T01:49:37.872Z,10.80
2024-01-25T01:52:06.056Z,10.80
2024-01-25T01:54:33.484Z,10.70
2024-01-25T01:57:00.935Z,10.80
2024-01-25T01:59:27.885Z,10.80
2024-01-25T02:01:54.965Z,10.80
2024-01-25T02:04:22.054Z,10.80
2024-01-25T02:06:49.360Z,10.80
2024-01-25T02:09:16.405Z,10.80
2024-01-25T02:11:43.369Z,10.80
2024-01-25T02:14:12.889Z,10.70
2024-01-25T02:16:40.349Z,10.70
2024-01-25T02:19:07.469Z,10.70
2024-01-25T02:21:34.424Z,10.70
2024-01-25T02:24:01.640Z,10.70
2024-01-25T02:26:28.580Z,10.70
2024-01-25T02:28:55.911Z,10.70
2024-01-25T02:31:23.003Z,10.70
2024-01-25T02:33:50.273Z,10.60
2024-01-25T02:36:17.790Z,10.60
2024-01-25T02:38:44.693Z,10.70
2024-01-25T02:41:11.649Z,10.70
2024-01-25T02:43:38.589Z,10.70
2024-01-25T02:46:05.597Z,10.70
2024-01-25T02:48:33.285Z,10.70
2024-01-25T02:51:00.288Z,10.70
2024-01-25T02:53:27.260Z,10.70
2024-01-25T02:55:54.203Z,10.70
2024-01-25T02:58:21.574Z,10.70
2024-01-25T03:00:48.785Z,10.60
2024-01-25T03:03:15.727Z,10.60
2024-01-25T03:05:42.864Z,10.60
2024-01-25T03:08:10.032Z,10.60
2024-01-25T03:10:37.164Z,10.60
2024-01-25T03:13:04.220Z,10.60
2024-01-25T03:15:31.224Z,10.50
2024-01-25T03:17:58.156Z,10.50
2024-01-25T03:20:25.365Z,10.50
2024-01-25T03:22:52.397Z,10.50
2024-01-25T03:25:19.753Z,10.40
2024-01-25T03:27:46.724Z,10.30
2024-01-25T03:30:13.733Z,10.20
2024-01-25T03:32:40.690Z,10.10
2024-01-25T03:35:08.288Z,9.90
2024-01-25T03:37:35.338Z,9.80
2024-01-25T03:40:02.291Z,9.70
2024-01-25T03:42:29.257Z,9.60
2024-01-25T03:44:56.143Z,9.50
2024-01-25T03:47:23.071Z,9.50
2024-01-25T03:49:50.031Z,9.40
2024-01-25T03:52:17.427Z,9.30
2024-01-25T03:54:44.388Z,9.30
2024-01-25T03:57:11.917Z,9.30
2024-01-25T03:59:39.853Z,9.30
2024-01-25T04:02:07.057Z,9.30
2024-01-25T04:04:34.213Z,9.20
2024-01-25T04:07:01.203Z,9.20
2024-01-25T04:09:28.097Z,9.10
2024-01-25T04:11:55.476Z,9.10
2024-01-25T04:14:22.393Z,9.10
2024-01-25T04:16:50.438Z,9.10
2024-01-25T04:19:17.760Z,9.10
2024-01-25T04:21:44.760Z,9.10
2024-01-25T04:24:11.676Z,9.00
2024-01-25T04:26:38.713Z,9.00
2024-01-25T04:29:07.273Z,9.00
2024-01-25T04:31:34.276Z,8.90
2024-01-25T04:34:01.452Z,8.80
2024-01-25T04:36:28.501Z,8.80
2024-01-25T04:38:55.414Z,8.80
2024-01-25T04:41:22.300Z,8.80
2024-01-25T04:43:49.186Z,8.70
2024-01-25T04:46:16.165Z,8.60
2024-01-25T04:48:43.488Z,8.60
2024-01-25T04:51:20.369Z,8.50
2024-01-25T04:53:47.729Z,8.50
2024-01-25T04:56:14.637Z,8.40
2024-01-25T04:58:41.534Z,8.40
2024-01-25T05:01:08.693Z,8.40
2024-01-25T05:03:35.851Z,8.40
2024-01-25T05:06:02.919Z,8.40
2024-01-25T05:08:29.965Z,8.40
2024-01-25T05:10:56.924Z,8.50
2024-01-25T05:13:24.009Z,8.40
2024-01-25T05:15:51.136Z,8.40
2024-01-25T05:18:18.761Z,8.40
2024-01-25T05:20:45.901Z,8.40
2024-01-25T05:23:12.788Z,8.40
2024-01-25T05:25:39.810Z,8.40
2024-01-25T05:28:07.030Z,8.40
2024-01-25T05:30:34.230Z,8.40
2024-01-25T05:33:02.091Z,8.40
2024-01-25T05:35:29.462Z,8.40
2024-01-25T05:37:56.636Z,8.50
2024-01-25T05:40:23.750Z,8.50
2024-01-25T05:42:50.764Z,8.50
2024-01-25T05:45:20.762Z,8.60
2024-01-25T05:47:48.590Z,8.60
2024-01-25T05:50:15.628Z,8.60
2024-01-25T05:52:42.620Z,8.60
2024-01-25T05:55:09.819Z,8.60
2024-01-25T05:57:37.906Z,8.60
2024-01-25T06:00:06.753Z,8.60
2024-01-25T06:02:35.417Z,8.60
2024-01-25T06:05:03.011Z,8.70
2024-01-25T06:07:30.251Z,8.70
2024-01-25T06:09:57.557Z,8.70
2024-01-25T06:12:24.545Z,8.70
2024-01-25T06:14:53.454Z,8.70
2024-01-25T06:17:20.389Z,8.80
2024-01-25T06:19:47.528Z,8.80
2024-01-25T06:22:14.866Z,8.80
2024-01-25T06:24:41.947Z,8.80
2024-01-25T06:27:09.209Z,8.70
2024-01-25T06:29:36.300Z,8.70
2024-01-25T06:32:10.521Z,8.70
2024-01-25T06:34:38.335Z,8.70
2024-01-25T06:37:05.511Z,8.70
2024-01-25T06:39:33.533Z,8.70
2024-01-25T06:42:00.619Z,8.70
2024-01-25T06:44:29.201Z,8.60
2024-01-25T06:46:56.058Z,8.70
2024-01-25T06:49:23.149Z,8.70
2024-01-25T06:51:50.341Z,8.70
2024-01-25T06:54:17.643Z,8.70
2024-01-25T06:56:44.683Z,8.70
2024-01-25T06:59:11.526Z,8.70
2024-01-25T07:01:39.107Z,8.70
2024-01-25T07:04:06.709Z,8.60
2024-01-25T07:06:34.291Z,8.60
2024-01-25T07:09:01.256Z,8.60
2024-01-25T07:11:28.285Z,8.50
2024-01-25T07:13:55.270Z,8.40
2024-01-25T07:16:23.048Z,8.40
2024-01-25T07:18:50.335Z,8.40
2024-01-25T07:21:18.961Z,8.40
2024-01-25T07:23:45.935Z,8.50
2024-01-25T07:26:19.063Z,8.50
2024-01-25T07:28:47.303Z,8.60
2024-01-25T07:31:14.396Z,8.50
2024-01-25T07:33:41.475Z,8.50
2024-01-25T07:36:08.484Z,8.50
2024-01-25T07:38:35.491Z,8.50
2024-01-25T07:41:02.355Z,8.50
2024-01-25T07:43:29.405Z,8.50
2024-01-25T07:45:56.449Z,8.50
2024-01-25T07:48:23.414Z,8.50
2024-01-25T07:50:50.564Z,8.50
2024-01-25T07:53:17.688Z,8.60
2024-01-25T07:55:44.697Z,8.60
2024-01-25T07:58:11.724Z,8.50
2024-01-25T08:00:38.959Z,8.50
2024-01-25T08:03:06.749Z,8.50
2024-01-25T08:05:40.892Z,8.50
2024-01-25T08:08:13.078Z,8.50
2024-01-25T08:10:40.290Z,8.50
2024-01-25T08:13:08.231Z,8.50
2024-01-25T08:15:35.628Z,8.60
2024-01-25T08:18:03.968Z,8.60
2024-01-25T08:20:31.636Z,8.60
2024-01-25T08:22:58.662Z,8.60
2024-01-25T08:25:26.829Z,8.60
2024-01-25T08:27:53.896Z,8.70
2024-01-25T08:30:20.886Z,8.80
2024-01-25T08:32:47.838Z,8.80
2024-01-25T08:35:14.967Z,8.80
2024-01-25T08:37:42.068Z,8.80
2024-01-25T08:40:10.861Z,8.80
2024-01-25T08:42:38.362Z,8.80
2024-01-25T08:45:08.573Z,8.90
2024-01-25T08:47:36.280Z,9.00
2024-01-25T08:50:05.102Z,9.00
2024-01-25T08:52:32.196Z,9.10
2024-01-25T08:54:59.463Z,9.10
2024-01-25T08:57:26.582Z,9.10
2024-01-25T08:59:53.832Z,9.10
2024-01-25T09:02:23.262Z,9.20
2024-01-25T09:04:50.581Z,9.30
2024-01-25T09:07:18.072Z,9.40
2024-01-25T09:09:45.098Z,9.40
2024-01-25T09:12:13.713Z,9.50
2024-01-25T09:14:40.599Z,9.60
2024-01-25T09:17:08.606Z,9.60
2024-01-25T09:19:35.733Z,9.70
2024-01-25T09:22:05.681Z,9.70
2024-01-25T09:24:37.714Z,9.80
2024-01-25T09:27:05.035Z,9.90
2024-01-25T09:29:32.058Z,10.00
2024-01-25T09:31:59.069Z,10.10
2024-01-25T09:34:27.152Z,10.20
2024-01-25T09:36:54.279Z,10.30
2024-01-25T09:39:21.318Z,10.30
2024-01-25T09:41:49.106Z,10.40
2024-01-25T09:44:18.213Z,10.40
2024-01-25T09:46:47.120Z,10.40
2024-01-25T09:49:14.402Z,10.40
2024-01-25T09:51:44.829Z,10.40
2024-01-25T09:54:11.817Z,10.40
2024-01-25T09:56:42.375Z,10.30
2024-01-25T09:59:10.190Z,10.30
2024-01-25T10:01:37.638Z,10.40
2024-01-25T10:04:09.260Z,10.40
2024-01-25T10:06:36.698Z,10.60
2024-01-25T10:09:05.780Z,10.70
2024-01-25T10:11:38.891Z,10.70
2024-01-25T10:14:09.768Z,10.60
2024-01-25T10:16:36.989Z,10.70
2024-01-25T10:19:09.224Z,10.70
2024-01-25T10:21:38.558Z,10.70
2024-01-25T10:24:07.896Z,10.70
2024-01-25T10:26:36.170Z,10.80
2024-01-25T10:29:04.324Z,10.80
2024-01-25T10:31:33.276Z,10.80
2024-01-25T10:34:02.066Z,10.90
2024-01-25T10:36:29.287Z,10.90
2024-01-25T10:38:58.379Z,11.00
2024-01-25T10:41:27.194Z,11.00
2024-01-25T10:43:56.518Z,11.00
2024-01-25T10:46:24.361Z,11.00
2024-01-25T10:48:52.668Z,11.00
2024-01-25T10:51:20.093Z,11.00
2024-01-25T10:53:47.496Z,11.00
2024-01-25T10:56:15.011Z,11.00
2024-01-25T10:58:43.226Z,11.10
2024-01-25T11:01:16.267Z,11.10
2024-01-25T11:03:48.381Z,11.10
2024-01-25T11:06:15.994Z,11.10
2024-01-25T11:08:43.216Z,11.10
2024-01-25T11:11:12.353Z,11.10
2024-01-25T11:13:46.017Z,11.10
2024-01-25T11:16:17.815Z,11.10
2024-01-25T11:18:52.823Z,11.10
2024-01-25T11:21:47.204Z,11.20
2024-01-25T11:24:20.882Z,11.30
2024-01-25T11:26:48.670Z,11.30
2024-01-25T11:29:21.688Z,11.20
2024-01-25T11:31:50.199Z,11.30
2024-01-25T11:34:19.074Z,11.30
2024-01-25T11:36:46.753Z,11.30
2024-01-25T11:39:14.660Z,11.30
2024-01-25T11:41:43.776Z,11.40
2024-01-25T11:44:14.954Z,11.40
2024-01-25T11:46:42.592Z,11.50
2024-01-25T11:49:09.958Z,11.50
2024-01-25T11:51:37.424Z,11.50
2024-01-25T11:54:08.173Z,11.50
2024-01-25T11:56:39.839Z,11.50
2024-01-25T11:59:08.989Z,11.50
2024-01-25T12:01:36.523Z,11.50
2024-01-25T12:04:03.878Z,11.50
2024-01-25T12:06:31.873Z,11.60
2024-01-25T12:09:10.965Z,11.60
2024-01-25T12:11:38.864Z,11.60
2024-01-25T12:14:06.635Z,11.60
2024-01-25T12:16:36.978Z,11.60
2024-01-25T12:19:05.705Z,11.60
2024-01-25T12:21:35.347Z,11.60
2024-01-25T12:24:03.727Z,11.70
2024-01-25T12:26:36.718Z,11.70
2024-01-25T12:29:05.907Z,11.70
2024-01-25T12:31:33.167Z,11.70
2024-01-25T12:34:01.561Z,11.80
2024-01-25T12:36:28.687Z,11.80
2024-01-25T12:38:55.644Z,11.80
2024-01-25T12:41:22.898Z,11.80
2024-01-25T12:43:50.319Z,11.80
2024-01-25T12:46:26.211Z,11.70
2024-01-25T12:48:57.543Z,11.70
2024-01-25T12:51:26.377Z,11.70
2024-01-25T12:53:53.607Z,11.80
2024-01-25T12:56:20.646Z,11.80
2024-01-25T12:58:48.126Z,11.80
2024-01-25T13:01:16.500Z,11.80
2024-01-25T13:03:48.184Z,11.80
2024-01-25T13:06:16.819Z,11.80
2024-01-25T13:08:44.265Z,11.80
2024-01-25T13:11:13.748Z,11.80
2024-01-25T13:13:40.767Z,11.80
2024-01-25T13:16:08.124Z,11.80
2024-01-25T13:18:35.202Z,11.80
2024-01-25T13:21:02.305Z,11.90
2024-01-25T13:23:29.228Z,11.90
2024-01-25T13:25:56.104Z,11.90
2024-01-25T13:28:23.115Z,11.90
2024-01-25T13:30:50.277Z,11.90
2024-01-25T13:33:17.472Z,11.90
2024-01-25T13:35:44.620Z,12.00
2024-01-25T13:38:15.585Z,12.00
2024-01-25T13:40:42.616Z,12.10
2024-01-25T13:43:09.713Z,12.10
2024-01-25T13:45:36.741Z,12.10
2024-01-25T13:48:04.116Z,12.10
2024-01-25T13:50:31.015Z,12.10
2024-01-25T13:55:24.742Z,12.10
2024-01-25T13:57:51.870Z,12.10
2024-01-25T14:00:19.675Z,12.00
2024-01-25T14:02:47.900Z,12.10
2024-01-25T14:05:14.977Z,12.00
2024-01-25T14:07:43.455Z,12.00
2024-01-25T14:10:11.174Z,12.00
2024-01-25T14:12:38.340Z,12.00
2024-01-25T14:15:05.657Z,12.00
2024-01-25T14:17:32.622Z,12.00
2024-01-25T14:19:59.738Z,12.00
2024-01-25T14:22:30.973Z,11.90
2024-01-25T14:25:00.410Z,11.90
2024-01-25T14:27:28.064Z,11.90
2024-01-25T14:29:56.184Z,11.80
2024-01-25T14:32:24.255Z,11.90
2024-01-25T14:34:52.200Z,11.90
2024-01-25T14:37:19.366Z,11.80
2024-01-25T14:39:56.586Z,11.80
2024-01-25T14:42:33.933Z,11.80
2024-01-25T14:45:00.887Z,11.80
2024-01-25T14:47:27.855Z,11.80
2024-01-25T14:49:54.959Z,11.80
2024-01-25T14:52:21.916Z,11.80
2024-01-25T14:54:48.893Z,11.70
2024-01-25T14:57:15.927Z,11.70
2024-01-25T14:59:44.201Z,11.80
2024-01-25T15:02:11.178Z,11.70
2024-01-25T15:04:38.581Z,11.70
2024-01-25T15:07:05.671Z,11.70
2024-01-25T15:09:33.991Z,11.70
2024-01-25T15:12:01.221Z,11.70
2024-01-25T15:14:28.224Z,11.70
2024-01-25T15:16:55.210Z,11.70
2024-01-25T15:19:22.635Z,11.70
2024-01-25T15:21:49.573Z,11.70
2024-01-25T15:24:17.480Z,11.70
2024-01-25T15:26:44.955Z,11.70
2024-01-25T15:29:12.050Z,11.70
2024-01-25T15:31:39.014Z,11.70
2024-01-25T15:34:06.100Z,11.70
2024-01-25T15:36:33.403Z,11.70
2024-01-25T15:39:01.368Z,11.70
2024-01-25T15:41:30.094Z,11.70
2024-01-25T15:43:58.181Z,11.70
2024-01-25T15:46:25.114Z,11.70
2024-01-25T15:48:55.422Z,11.70
2024-01-25T15:51:23.599Z,11.70
2024-01-25T15:53:50.640Z,11.70
2024-01-25T15:56:17.571Z,11.70
2024-01-25T15:58:44.562Z,11.70
2024-01-25T16:01:11.560Z,11.70
2024-01-25T16:03:40.460Z,11.70
2024-01-25T16:06:07.908Z,11.60
2024-01-25T16:08:38.138Z,11.60
2024-01-25T16:11:07.848Z,11.60
2024-01-25T16:13:35.233Z,11.60
2024-01-25T16:16:02.296Z,11.60
2024-01-25T16:18:29.491Z,11.60
2024-01-25T16:20:56.746Z,11.60
2024-01-25T16:23:23.642Z,11.60
2024-01-25T16:25:50.576Z,11.60
2024-01-25T16:28:18.673Z,11.60
2024-01-25T16:30:45.730Z,11.60
2024-01-25T16:33:12.819Z,11.60
2024-01-25T16:35:39.783Z,11.60
2024-01-25T16:38:06.804Z,11.60
2024-01-25T16:40:33.837Z,11.60
2024-01-25T16:43:01.496Z,11.60
2024-01-25T16:45:28.580Z,11.60
2024-01-25T16:47:55.507Z,11.70
2024-01-25T16:50:22.578Z,11.60
2024-01-25T16:52:50.782Z,11.60
2024-01-25T16:55:17.831Z,11.70
2024-01-25T16:57:44.857Z,11.70
2024-01-25T17:00:13.295Z,11.70
2024-01-25T17:02:40.187Z,11.70
2024-01-25T17:05:07.418Z,11.70
2024-01-25T17:07:34.586Z,11.70
2024-01-25T17:10:01.553Z,11.70
2024-01-25T17:12:28.577Z,11.70
2024-01-25T17:14:55.791Z,11.70
2024-01-25T17:17:22.847Z,11.70
2024-01-25T17:19:49.887Z,11.60
2024-01-25T17:22:16.855Z,11.60
2024-01-25T17:24:43.930Z,11.60
2024-01-25T17:27:11.352Z,11.60
2024-01-25T17:29:38.336Z,11.70
2024-01-25T17:32:05.580Z,11.70
2024-01-25T17:34:32.658Z,11.70
2024-01-25T17:36:59.928Z,11.70
2024-01-25T17:39:27.004Z,11.70
2024-01-25T17:41:53.955Z,11.80
2024-01-25T17:44:20.942Z,11.80
2024-01-25T17:46:47.986Z,11.80
2024-01-25T17:49:15.083Z,11.80
2024-01-25T17:51:42.111Z,11.90
2024-01-25T17:54:10.213Z,11.90
2024-01-25T17:56:41.635Z,11.90
2024-01-25T17:59:08.699Z,11.90
2024-01-25T18:01:35.874Z,11.90
2024-01-25T18:04:02.982Z,11.90
2024-01-25T18:06:29.958Z,11.90
2024-01-25T18:08:57.163Z,12.00
2024-01-25T18:11:24.119Z,12.00
2024-01-25T18:13:51.211Z,12.10
2024-01-25T18:16:18.619Z,12.10
2024-01-25T18:18:45.780Z,12.10
2024-01-25T18:21:12.828Z,12.10
2024-01-25T18:23:40.314Z,12.10
2024-01-25T18:26:07.761Z,12.20
2024-01-25T18:28:35.210Z,12.20
2024-01-25T18:31:05.277Z,12.20
2024-01-25T18:33:34.886Z,12.30
2024-01-25T18:36:02.201Z,12.20
2024-01-25T18:38:29.243Z,12.30
2024-01-25T18:40:56.181Z,12.30
2024-01-25T18:43:24.884Z,12.30
2024-01-25T18:45:52.560Z,12.30
2024-01-25T18:48:19.685Z,12.40
2024-01-25T18:50:46.734Z,12.30
2024-01-25T18:53:13.678Z,12.40
2024-01-25T18:55:42.674Z,12.30
2024-01-25T18:58:10.114Z,12.40
2024-01-25T19:00:37.428Z,12.40
2024-01-25T19:03:04.739Z,12.40
2024-01-25T19:05:31.968Z,12.50
2024-01-25T19:07:59.210Z,12.50
2024-01-25T19:10:26.814Z,12.50
2024-01-25T19:12:53.812Z,12.50
2024-01-25T19:15:21.207Z,12.50
2024-01-25T19:17:48.771Z,12.60
2024-01-25T19:20:15.926Z,12.60
2024-01-25T19:22:42.927Z,12.60
2024-01-25T19:25:09.948Z,12.60
2024-01-25T19:27:37.728Z,12.60
2024-01-25T19:30:08.270Z,12.70
2024-01-25T19:32:35.598Z,12.70
2024-01-25T19:35:02.690Z,12.70
2024-01-25T19:37:29.684Z,12.70
2024-01-25T19:39:56.730Z,12.70
2024-01-25T19:42:24.592Z,12.80
2024-01-25T19:44:51.626Z,12.80
2024-01-25T19:47:18.755Z,12.80
2024-01-25T19:49:45.817Z,12.90
2024-01-25T19:52:12.824Z,12.90
2024-01-25T19:54:40.274Z,13.00
2024-01-25T19:57:07.712Z,13.00
2024-01-25T19:59:34.948Z,13.10
2024-01-25T20:02:03.945Z,13.10
2024-01-25T20:04:33.403Z,13.10
2024-01-25T20:07:00.857Z,13.10
2024-01-25T20:09:27.885Z,13.10
2024-01-25T20:11:54.914Z,13.10
2024-01-25T20:14:22.690Z,13.20
2024-01-25T20:16:49.643Z,13.20
2024-01-25T20:19:17.198Z,13.20
2024-01-25T20:21:44.346Z,13.10
2024-01-25T20:24:11.325Z,13.20
2024-01-25T20:26:38.501Z,13.20
2024-01-25T20:29:05.553Z,13.20
2024-01-25T20:31:32.497Z,13.20
2024-01-25T20:33:59.620Z,13.20
2024-01-25T20:36:26.685Z,13.30
2024-01-25T20:38:53.686Z,13.30
2024-01-25T20:41:21.834Z,13.20
2024-01-25T20:43:48.782Z,13.30
2024-01-25T20:46:15.827Z,13.30
2024-01-25T20:48:43.058Z,13.30
2024-01-25T20:51:10.351Z,13.30
2024-01-25T20:53:37.386Z,13.30
2024-01-25T20:56:04.641Z,13.30
2024-01-25T20:58:33.577Z,13.40
2024-01-25T21:01:00.822Z,13.40
2024-01-25T21:03:28.364Z,13.50
2024-01-25T21:05:55.560Z,13.50
2024-01-25T21:08:23.027Z,13.50
2024-01-25T21:10:50.258Z,13.50
2024-01-25T21:13:17.556Z,13.50
2024-01-25T21:15:44.515Z,13.50
2024-01-25T21:18:11.547Z,13.50
2024-01-25T21:20:38.505Z,13.50
2024-01-25T21:23:05.508Z,13.50
2024-01-25T21:25:32.462Z,13.60
2024-01-25T21:28:00.334Z,13.60
2024-01-25T21:30:27.295Z,13.60
2024-01-25T21:32:54.319Z,13.60
2024-01-25T21:35:21.355Z,13.60
2024-01-25T21:37:48.406Z,13.60
2024-01-25T21:40:15.589Z,13.60
2024-01-25T21:42:42.526Z,13.60
2024-01-25T21:45:12.058Z,13.60
2024-01-25T21:47:41.166Z,13.60
2024-01-25T21:50:10.157Z,13.60
2024-01-25T21:52:37.812Z,13.60
2024-01-25T21:55:07.892Z,13.60
2024-01-25T21:57:35.298Z,13.60
2024-01-25T22:00:02.368Z,13.60
2024-01-25T22:02:31.569Z,13.60
2024-01-25T22:04:58.895Z,13.60
2024-01-25T22:07:26.222Z,13.60
2024-01-25T22:09:53.160Z,13.60
2024-01-25T22:12:20.413Z,13.60
2024-01-25T22:14:47.593Z,13.60
2024-01-25T22:17:14.565Z,13.70
2024-01-25T22:19:41.590Z,13.70
2024-01-25T22:22:08.775Z,13.70
2024-01-25T22:24:35.810Z,13.70
2024-01-25T22:27:03.654Z,13.70
2024-01-25T22:29:30.634Z,13.80
2024-01-25T22:31:59.646Z,13.70
2024-01-25T22:34:26.662Z,13.70
2024-01-25T22:36:53.927Z,13.80
2024-01-25T22:39:20.925Z,13.70
2024-01-25T22:41:47.856Z,13.70
2024-01-25T22:44:14.799Z,13.70
2024-01-25T22:46:42.892Z,13.70
2024-01-25T22:49:11.657Z,13.70
2024-01-25T22:51:38.769Z,13.70
2024-01-25T22:54:05.884Z,13.70
2024-01-25T22:56:33.391Z,13.70
2024-01-25T22:59:00.645Z,13.70
2024-01-25T23:01:28.133Z,13.70
2024-01-25T23:03:55.308Z,13.70
2024-01-25T23:06:22.325Z,13.70
2024-01-25T23:08:49.468Z,13.80
2024-01-25T23:11:16.744Z,13.80
2024-01-25T23:13:43.885Z,13.80
2024-01-25T23:16:10.861Z,13.70
2024-01-25T23:18:38.165Z,13.70
2024-01-25T23:21:05.293Z,13.70
2024-01-25T23:23:32.306Z,13.70
2024-01-25T23:25:59.230Z,13.70
2024-01-25T23:28:26.169Z,13.70
2024-01-25T23:30:53.128Z,13.70
2024-01-25T23:33:22.663Z,13.70
2024-01-25T23:35:49.833Z,13.70
2024-01-25T23:38:16.989Z,13.70
2024-01-25T23:40:43.990Z,13.70
2024-01-25T23:43:11.845Z,13.70
2024-01-25T23:45:38.848Z,13.70
2024-01-25T23:48:06.708Z,13.70
2024-01-25T23:50:33.891Z,13.70
2024-01-25T23:53:00.995Z,13.80
2024-01-25T23:55:28.233Z,13.80
2024-01-25T23:57:55.203Z,13.70
